createdAt,value
2018-06-08T00:00:09.525Z,2.60
2018-06-08T00:02:38.381Z,2.97
2018-06-08T00:05:07.187Z,2.70
2018-06-08T00:07:36.019Z,3.10
2018-06-08T00:10:04.935Z,3.20
2018-06-08T00:12:33.767Z,2.90
2018-06-08T00:15:02.616Z,3.30
2018-06-08T00:17:31.475Z,3.30
2018-06-08T00:20:00.293Z,2.93
2018-06-08T00:22:29.124Z,3.20
2018-06-08T00:24:57.985Z,3.43
2018-06-08T00:27:26.803Z,3.00
2018-06-08T00:29:55.633Z,3.40
2018-06-08T00:32:24.437Z,3.60
2018-06-08T00:34:53.265Z,3.70
2018-06-08T00:37:22.136Z,4.45
2018-06-08T00:39:50.985Z,3.83
2018-06-08T00:42:19.791Z,2.98
2018-06-08T00:44:48.601Z,3.80
2018-06-08T00:47:17.451Z,3.27
2018-06-08T00:49:46.249Z,3.00
2018-06-08T00:52:15.100Z,3.90
2018-06-08T00:54:43.946Z,4.30
2018-06-08T00:57:12.790Z,3.60
2018-06-08T00:59:41.641Z,3.40
2018-06-08T01:02:10.519Z,4.70
2018-06-08T01:04:39.333Z,3.87
2018-06-08T01:07:08.198Z,4.13
2018-06-08T01:09:37.105Z,3.73
2018-06-08T01:12:05.963Z,3.90
2018-06-08T01:14:35.486Z,3.15
2018-06-08T01:17:04.417Z,3.80
2018-06-08T01:19:33.972Z,3.90
2018-06-08T01:22:03.122Z,4.17
2018-06-08T01:24:32.341Z,4.07
2018-06-08T01:27:01.196Z,4.20
2018-06-08T01:29:30.011Z,3.90
2018-06-08T01:31:58.899Z,4.10
2018-06-08T01:34:27.688Z,4.70
2018-06-08T01:36:56.478Z,4.37
2018-06-08T01:39:25.275Z,4.00
2018-06-08T01:41:54.092Z,3.80
2018-06-08T01:44:22.928Z,4.80
2018-06-08T01:46:51.748Z,4.50
2018-06-08T01:49:20.554Z,4.30
2018-06-08T01:51:49.368Z,4.07
2018-06-08T01:54:18.198Z,4.23
2018-06-08T01:56:47.389Z,4.30
2018-06-08T01:59:16.250Z,4.60
2018-06-08T02:01:45.106Z,4.23
2018-06-08T02:04:13.973Z,4.37
2018-06-08T02:06:42.855Z,5.25
2018-06-08T02:09:11.741Z,4.92
2018-06-08T02:11:40.629Z,5.08
2018-06-08T02:14:09.549Z,4.97
2018-06-08T02:16:38.411Z,4.50
2018-06-08T02:19:07.251Z,5.70
2018-06-08T02:21:36.061Z,4.50
2018-06-08T02:24:04.942Z,4.47
2018-06-08T02:26:33.812Z,4.35
2018-06-08T02:29:02.625Z,4.80
2018-06-08T02:31:31.510Z,4.40
2018-06-08T02:34:00.386Z,4.80
2018-06-08T02:36:29.252Z,4.67
2018-06-08T02:38:58.146Z,5.10
2018-06-08T02:41:27.002Z,5.00
2018-06-08T02:43:55.846Z,5.50
2018-06-08T02:46:24.737Z,5.60
2018-06-08T02:48:53.579Z,5.13
2018-06-08T02:51:22.441Z,5.60
2018-06-08T02:53:51.297Z,4.80
2018-06-08T02:56:20.089Z,6.00
2018-06-08T02:58:48.922Z,5.08
2018-06-08T03:01:17.789Z,5.63
2018-06-08T03:03:46.639Z,5.37
2018-06-08T03:06:15.522Z,5.00
2018-06-08T03:08:44.359Z,5.10
2018-06-08T03:11:13.186Z,5.47
2018-06-08T03:13:42.025Z,5.10
2018-06-08T03:16:10.930Z,5.80
2018-06-08T03:18:39.822Z,4.80
2018-06-08T03:21:08.729Z,5.40
2018-06-08T03:23:37.601Z,5.07
2018-06-08T03:26:06.560Z,5.23
2018-06-08T03:28:41.317Z,5.73
2018-06-08T03:31:10.148Z,5.70
2018-06-08T03:33:39.005Z,5.00
2018-06-08T03:36:07.885Z,4.72
2018-06-08T03:38:36.764Z,4.90
2018-06-08T03:41:05.663Z,5.47
2018-06-08T03:43:34.575Z,6.28
2018-06-08T03:46:03.458Z,5.62
2018-06-08T03:48:32.313Z,5.55
2018-06-08T03:51:01.137Z,4.73
2018-06-08T03:53:30.035Z,5.23
2018-06-08T03:55:58.954Z,4.83
2018-06-08T03:58:27.889Z,4.53
2018-06-08T04:00:56.764Z,4.80
2018-06-08T04:03:25.648Z,5.40
2018-06-08T04:05:54.582Z,5.37
2018-06-08T04:08:23.427Z,5.50
2018-06-08T04:10:52.367Z,5.60
2018-06-08T04:13:21.312Z,4.60
2018-06-08T04:15:50.204Z,5.35
2018-06-08T04:18:19.156Z,4.87
2018-06-08T04:20:48.103Z,5.83
2018-06-08T04:23:16.978Z,5.40
2018-06-08T04:25:45.950Z,5.67
2018-06-08T04:28:15.213Z,5.78
2018-06-08T04:30:44.359Z,5.72
2018-06-08T04:33:16.159Z,5.83
2018-06-08T04:35:45.762Z,5.60
2018-06-08T04:38:14.736Z,6.22
2018-06-08T04:40:43.732Z,5.47
2018-06-08T04:43:12.630Z,5.20
2018-06-08T04:45:41.519Z,6.40
2018-06-08T04:48:10.485Z,5.60
2018-06-08T04:50:39.395Z,5.03
2018-06-08T04:53:08.240Z,5.20
2018-06-08T04:55:37.121Z,5.33
2018-06-08T04:58:06.041Z,4.67
2018-06-08T05:00:34.952Z,5.23
2018-06-08T05:03:03.858Z,6.33
2018-06-08T05:05:32.737Z,5.67
2018-06-08T05:08:01.589Z,4.70
2018-06-08T05:10:30.986Z,5.13
2018-06-08T05:12:59.915Z,5.13
2018-06-08T05:15:28.780Z,4.60
2018-06-08T05:17:57.707Z,5.17
2018-06-08T05:20:26.713Z,4.70
2018-06-08T05:22:55.628Z,4.63
2018-06-08T05:25:24.606Z,4.60
2018-06-08T05:27:53.497Z,4.97
2018-06-08T05:30:24.507Z,4.50
2018-06-08T05:32:53.407Z,4.60
2018-06-08T05:35:22.450Z,4.90
2018-06-08T05:37:57.709Z,4.70
2018-06-08T05:40:26.630Z,4.40
2018-06-08T05:42:55.501Z,5.53
2018-06-08T05:45:24.429Z,5.07
2018-06-08T05:47:53.341Z,6.00
2018-06-08T05:50:22.287Z,5.10
2018-06-08T05:52:51.221Z,4.57
2018-06-08T05:55:20.206Z,4.87
2018-06-08T05:57:49.148Z,4.50
2018-06-08T06:00:18.065Z,5.33
2018-06-08T06:02:46.943Z,4.53
2018-06-08T06:05:15.786Z,4.50
2018-06-08T06:07:44.705Z,5.00
2018-06-08T06:10:13.694Z,4.87
2018-06-08T06:12:42.592Z,4.90
2018-06-08T06:15:11.481Z,4.83
2018-06-08T06:17:40.321Z,5.27
2018-06-08T06:20:09.295Z,3.90
2018-06-08T06:22:38.195Z,4.27
2018-06-08T06:25:07.154Z,4.00
2018-06-08T06:27:36.071Z,5.13
2018-06-08T06:30:05.298Z,4.57
2018-06-08T06:32:34.181Z,4.23
2018-06-08T06:35:03.080Z,4.30
2018-06-08T06:37:32.127Z,4.97
2018-06-08T06:40:01.093Z,4.13
2018-06-08T06:42:29.991Z,4.57
2018-06-08T06:44:58.922Z,3.90
2018-06-08T06:47:27.804Z,4.43
2018-06-08T06:49:56.689Z,4.50
2018-06-08T06:52:25.587Z,4.57
2018-06-08T06:54:54.499Z,5.17
2018-06-08T06:57:23.378Z,5.13
2018-06-08T06:59:52.285Z,4.20
2018-06-08T07:02:21.229Z,5.33
2018-06-08T07:04:50.145Z,4.03
2018-06-08T07:07:19.051Z,4.43
2018-06-08T07:09:47.941Z,5.70
2018-06-08T07:12:16.800Z,4.83
2018-06-08T07:14:45.729Z,4.90
2018-06-08T07:17:14.595Z,4.70
2018-06-08T07:19:43.446Z,4.53
2018-06-08T07:22:12.316Z,4.70
2018-06-08T07:24:41.236Z,4.70
2018-06-08T07:27:10.123Z,4.70
2018-06-08T07:29:39.057Z,4.30
2018-06-08T07:32:07.917Z,4.33
2018-06-08T07:34:36.822Z,4.90
2018-06-08T07:37:05.713Z,4.60
2018-06-08T07:39:34.731Z,4.20
2018-06-08T07:42:03.606Z,4.17
2018-06-08T07:44:32.465Z,4.60
2018-06-08T07:47:01.367Z,4.30
2018-06-08T07:49:30.348Z,4.50
2018-06-08T07:51:59.270Z,3.50
2018-06-08T07:54:28.153Z,3.73
2018-06-08T07:56:57.515Z,4.60
2018-06-08T07:59:26.416Z,4.40
2018-06-08T08:01:55.316Z,4.03
2018-06-08T08:04:24.200Z,4.70
2018-06-08T08:06:53.117Z,4.47
2018-06-08T08:09:22.067Z,4.30
2018-06-08T08:11:50.956Z,3.90
2018-06-08T08:14:19.850Z,4.93
2018-06-08T08:16:48.725Z,3.63
2018-06-08T08:19:17.690Z,4.30
2018-06-08T08:21:46.594Z,4.20
2018-06-08T08:24:15.477Z,4.80
2018-06-08T08:26:44.400Z,4.30
2018-06-08T08:29:13.256Z,4.77
2018-06-08T08:31:42.179Z,4.27
2018-06-08T08:34:11.070Z,3.97
2018-06-08T08:36:39.970Z,4.30
2018-06-08T08:39:09.613Z,4.10
2018-06-08T08:41:38.497Z,4.50
2018-06-08T08:44:07.349Z,4.57
2018-06-08T08:46:36.237Z,3.63
2018-06-08T08:49:05.126Z,3.80
2018-06-08T08:51:34.122Z,4.43
2018-06-08T08:54:03.009Z,4.10
2018-06-08T08:56:31.934Z,4.10
2018-06-08T08:59:00.858Z,4.57
2018-06-08T09:01:29.697Z,4.30
2018-06-08T09:03:58.574Z,3.43
2018-06-08T09:06:27.390Z,4.03
2018-06-08T09:08:56.273Z,5.20
2018-06-08T09:11:25.224Z,4.83
2018-06-08T09:13:54.086Z,4.63
2018-06-08T09:16:22.953Z,4.30
2018-06-08T09:18:51.836Z,4.50
2018-06-08T09:21:20.706Z,4.70
2018-06-08T09:23:49.575Z,4.50
2018-06-08T09:26:18.501Z,5.23
2018-06-08T09:28:47.355Z,5.40
2018-06-08T09:31:16.245Z,5.00
2018-06-08T09:33:45.109Z,4.73
2018-06-08T09:36:14.049Z,5.77
2018-06-08T09:38:42.978Z,5.20
2018-06-08T09:41:11.870Z,5.50
2018-06-08T09:43:40.791Z,5.03
2018-06-08T09:46:09.788Z,5.60
2018-06-08T09:48:38.665Z,6.10
2018-06-08T09:51:07.574Z,5.85
2018-06-08T09:53:59.312Z,5.93
2018-06-08T09:56:28.178Z,6.10
2018-06-08T09:58:57.083Z,5.70
2018-06-08T10:01:26.001Z,5.50
2018-06-08T10:03:54.917Z,5.27
2018-06-08T10:06:23.788Z,5.03
2018-06-08T10:08:52.676Z,6.00
2018-06-08T10:11:21.597Z,5.93
2018-06-08T10:13:50.476Z,5.60
2018-06-08T10:16:19.384Z,5.73
2018-06-08T10:18:48.295Z,5.60
2018-06-08T10:21:17.188Z,6.07
2018-06-08T10:23:46.078Z,5.60
2018-06-08T10:26:15.006Z,6.00
2018-06-08T10:28:43.890Z,6.00
2018-06-08T10:31:12.777Z,5.47
2018-06-08T10:33:41.655Z,5.33
2018-06-08T10:36:10.577Z,5.90
2018-06-08T10:38:39.456Z,5.37
2018-06-08T10:41:08.305Z,5.97
2018-06-08T10:43:37.204Z,5.73
2018-06-08T10:46:06.170Z,6.40
2018-06-08T10:48:35.061Z,5.17
2018-06-08T10:51:03.969Z,6.07
2018-06-08T10:53:32.829Z,5.87
2018-06-08T10:56:01.748Z,5.23
2018-06-08T10:58:30.667Z,5.70
2018-06-08T11:00:59.557Z,5.97
2018-06-08T11:03:28.459Z,6.40
2018-06-08T11:05:57.355Z,5.90
2018-06-08T11:08:26.218Z,6.43
2018-06-08T11:10:56.066Z,6.42
2018-06-08T11:13:24.958Z,6.73
2018-06-08T11:15:53.814Z,6.03
2018-06-08T11:18:22.676Z,6.60
2018-06-08T11:20:51.534Z,6.70
2018-06-08T11:23:20.430Z,6.60
2018-06-08T11:25:49.284Z,6.57
2018-06-08T11:28:18.178Z,7.42
2018-06-08T11:30:47.049Z,6.65
2018-06-08T11:33:15.929Z,6.20
2018-06-08T11:35:44.823Z,6.00
2018-06-08T11:38:14.670Z,6.84
2018-06-08T11:40:43.569Z,7.10
2018-06-08T11:43:12.417Z,7.40
2018-06-08T11:45:41.295Z,6.83
2018-06-08T11:48:11.075Z,7.10
2018-06-08T11:50:39.959Z,7.37
2018-06-08T11:53:08.843Z,6.70
2018-06-08T11:55:37.744Z,6.90
2018-06-08T11:58:06.662Z,7.47
2018-06-08T12:00:35.560Z,7.00
2018-06-08T12:03:04.495Z,6.63
2018-06-08T12:05:33.409Z,7.20
2018-06-08T12:08:02.324Z,7.20
2018-06-08T12:10:31.311Z,7.28
2018-06-08T12:13:00.154Z,7.37
2018-06-08T12:15:31.664Z,6.93
2018-06-08T12:18:00.722Z,7.90
2018-06-08T12:20:29.681Z,7.43
2018-06-08T12:22:58.544Z,7.10
2018-06-08T12:25:27.461Z,7.00
2018-06-08T12:27:56.399Z,7.33
2018-06-08T12:30:25.325Z,7.53
2018-06-08T12:32:54.224Z,6.75
2018-06-08T12:35:23.130Z,7.50
2018-06-08T12:37:52.083Z,6.70
2018-06-08T12:40:21.175Z,7.90
2018-06-08T12:42:50.050Z,6.60
2018-06-08T12:45:19.043Z,7.83
2018-06-08T12:47:47.934Z,7.43
2018-06-08T12:50:16.863Z,7.72
2018-06-08T12:52:45.790Z,7.60
2018-06-08T12:55:14.624Z,7.00
2018-06-08T12:57:43.489Z,6.17
2018-06-08T13:00:12.365Z,7.30
2018-06-08T13:02:41.227Z,6.13
2018-06-08T13:05:10.042Z,6.57
2018-06-08T13:07:38.890Z,6.10
2018-06-08T13:10:07.767Z,5.43
2018-06-08T13:12:36.605Z,6.10
2018-06-08T13:15:05.510Z,5.17
2018-06-08T13:17:34.457Z,5.60
2018-06-08T13:20:03.450Z,5.30
2018-06-08T13:22:32.823Z,5.80
2018-06-08T13:25:01.716Z,5.53
2018-06-08T13:27:30.589Z,6.63
2018-06-08T13:29:59.557Z,6.17
2018-06-08T13:32:28.432Z,6.60
2018-06-08T13:34:57.411Z,6.80
2018-06-08T13:37:26.285Z,6.73
2018-06-08T13:39:55.213Z,7.10
2018-06-08T13:42:24.408Z,7.10
2018-06-08T13:44:53.281Z,6.53
2018-06-08T13:47:22.553Z,7.83
2018-06-08T13:49:51.437Z,6.40
2018-06-08T13:52:20.322Z,6.70
2018-06-08T13:54:49.199Z,7.07
2018-06-08T13:57:18.061Z,6.73
2018-06-08T13:59:47.023Z,6.80
2018-06-08T14:02:15.915Z,7.40
2018-06-08T14:04:45.054Z,6.43
2018-06-08T14:07:13.947Z,6.80
2018-06-08T14:09:42.815Z,6.70
2018-06-08T14:12:11.741Z,6.53
2018-06-08T14:14:40.674Z,6.27
2018-06-08T14:17:09.560Z,6.60
2018-06-08T14:19:39.242Z,6.60
2018-06-08T14:22:08.091Z,6.50
2018-06-08T14:24:37.071Z,6.53
2018-06-08T14:27:05.930Z,7.47
2018-06-08T14:29:34.879Z,7.80
2018-06-08T14:32:04.010Z,7.10
2018-06-08T14:34:32.907Z,7.30
2018-06-08T14:37:01.820Z,6.73
2018-06-08T14:39:30.704Z,6.50
2018-06-08T14:41:59.608Z,6.70
2018-06-08T14:44:31.714Z,6.73
2018-06-08T14:47:00.713Z,7.23
2018-06-08T14:49:29.899Z,6.53
2018-06-08T14:51:59.289Z,7.63
2018-06-08T14:54:28.180Z,6.87
2018-06-08T14:56:57.073Z,6.85
2018-06-08T14:59:26.007Z,7.40
2018-06-08T15:01:54.920Z,7.40
2018-06-08T15:04:23.764Z,6.90
2018-06-08T15:06:52.741Z,7.63
2018-06-08T15:09:21.694Z,7.65
2018-06-08T15:11:50.587Z,7.50
2018-06-08T15:14:19.604Z,7.67
2018-06-08T15:16:48.477Z,7.00
2018-06-08T15:19:17.354Z,7.60
2018-06-08T15:21:46.209Z,6.53
2018-06-08T15:24:15.091Z,7.37
2018-06-08T15:26:44.034Z,7.43
2018-06-08T15:29:12.977Z,8.30
2018-06-08T15:31:47.181Z,8.90
2018-06-08T15:34:19.234Z,7.63
2018-06-08T15:36:51.133Z,8.30
2018-06-08T15:39:25.772Z,7.57
2018-06-08T15:42:04.226Z,7.10
2018-06-08T15:44:44.955Z,6.90
2018-06-08T15:47:21.053Z,7.80
2018-06-08T15:50:00.346Z,7.80
2018-06-08T15:52:32.819Z,6.60
2018-06-08T15:55:01.770Z,6.87
2018-06-08T15:57:30.719Z,7.77
2018-06-08T16:00:00.672Z,7.67
2018-06-08T16:02:29.810Z,6.87
2018-06-08T16:04:58.721Z,7.40
2018-06-08T16:07:27.564Z,5.87
2018-06-08T16:09:56.481Z,6.80
2018-06-08T16:12:25.464Z,7.00
2018-06-08T16:14:54.353Z,7.20
2018-06-08T16:17:23.295Z,6.93
2018-06-08T16:19:53.675Z,6.30
2018-06-08T16:22:22.532Z,6.73
2018-06-08T16:24:51.565Z,7.37
2018-06-08T16:27:20.515Z,6.73
2018-06-08T16:29:49.468Z,7.30
2018-06-08T16:32:18.884Z,7.20
2018-06-08T16:34:47.911Z,6.97
2018-06-08T16:37:16.859Z,6.70
2018-06-08T16:39:45.787Z,7.47
2018-06-08T16:42:14.629Z,7.73
2018-06-08T16:44:44.445Z,6.93
2018-06-08T16:47:13.342Z,6.90
2018-06-08T16:49:42.228Z,6.75
2018-06-08T16:52:11.082Z,6.47
2018-06-08T16:54:40.009Z,6.60
2018-06-08T16:57:08.969Z,6.60
2018-06-08T16:59:37.917Z,6.23
2018-06-08T17:02:06.840Z,6.20
2018-06-08T17:04:35.724Z,6.10
2018-06-08T17:07:04.630Z,5.77
2018-06-08T17:09:33.564Z,5.93
2018-06-08T17:12:02.443Z,5.90
2018-06-08T17:14:31.357Z,6.23
2018-06-08T17:17:00.358Z,6.83
2018-06-08T17:19:29.233Z,6.25
2018-06-08T17:21:58.153Z,5.73
2018-06-08T17:24:27.049Z,5.90
2018-06-08T17:26:55.997Z,6.17
2018-06-08T17:29:24.896Z,5.60
2018-06-08T17:31:53.805Z,5.30
2018-06-08T17:34:22.682Z,5.90
2018-06-08T17:36:57.834Z,5.83
2018-06-08T17:39:26.762Z,5.57
2018-06-08T17:41:55.665Z,5.93
2018-06-08T17:44:24.577Z,5.83
2018-06-08T17:46:53.526Z,5.57
2018-06-08T17:49:22.446Z,6.70
2018-06-08T17:51:51.332Z,5.70
2018-06-08T17:54:20.220Z,6.10
2018-06-08T17:56:49.134Z,6.50
2018-06-08T17:59:18.121Z,5.03
2018-06-08T18:01:47.123Z,6.07
2018-06-08T18:04:16.041Z,5.03
2018-06-08T18:06:44.939Z,5.17
2018-06-08T18:09:13.833Z,5.60
2018-06-08T18:11:42.777Z,5.90
2018-06-08T18:14:11.672Z,5.10
2018-06-08T18:16:40.560Z,5.27
2018-06-08T18:19:09.445Z,5.70
2018-06-08T18:21:38.391Z,5.43
2018-06-08T18:24:07.307Z,5.30
2018-06-08T18:26:36.198Z,5.60
2018-06-08T18:29:05.582Z,5.23
2018-06-08T18:31:34.526Z,5.33
2018-06-08T18:34:03.470Z,5.40
2018-06-08T18:36:32.372Z,5.23
2018-06-08T18:39:01.283Z,5.40
2018-06-08T18:41:30.189Z,5.90
2018-06-08T18:43:59.076Z,4.70
2018-06-08T18:46:27.949Z,5.03
2018-06-08T18:48:56.894Z,4.45
2018-06-08T18:51:25.820Z,4.67
2018-06-08T18:53:54.729Z,5.23
2018-06-08T18:56:23.645Z,5.83
2018-06-08T18:58:52.565Z,6.47
2018-06-08T19:01:21.492Z,5.90
2018-06-08T19:03:50.418Z,7.10
2018-06-08T19:06:19.375Z,5.50
2018-06-08T19:08:48.328Z,6.13
2018-06-08T19:11:18.877Z,4.97
2018-06-08T19:13:47.791Z,5.37
2018-06-08T19:16:16.647Z,4.73
2018-06-08T19:18:45.498Z,4.30
2018-06-08T19:21:14.325Z,4.57
2018-06-08T19:23:43.148Z,5.07
2018-06-08T19:26:11.966Z,4.33
2018-06-08T19:28:46.719Z,3.90
2018-06-08T19:31:19.065Z,4.00
2018-06-08T19:33:49.942Z,4.13
2018-06-08T19:36:19.123Z,4.63
2018-06-08T19:38:54.702Z,5.20
2018-06-08T19:41:25.618Z,4.77
2018-06-08T19:43:55.310Z,4.90
2018-06-08T19:46:24.196Z,4.80
2018-06-08T19:49:00.959Z,5.20
2018-06-08T19:51:35.276Z,5.07
2018-06-08T19:54:10.165Z,4.87
2018-06-08T19:56:50.006Z,5.20
2018-06-08T19:59:27.792Z,5.00
2018-06-08T20:02:03.821Z,4.13
2018-06-08T20:04:40.597Z,4.67
2018-06-08T20:07:13.036Z,5.10
2018-06-08T20:09:51.961Z,4.57
2018-06-08T20:12:30.794Z,4.63
2018-06-08T20:15:07.794Z,4.37
2018-06-08T20:17:38.272Z,4.50
2018-06-08T20:20:12.841Z,4.90
2018-06-08T20:22:43.076Z,4.57
2018-06-08T20:25:12.626Z,4.35
2018-06-08T20:27:47.244Z,4.60
2018-06-08T20:30:23.593Z,4.50
2018-06-08T20:33:06.017Z,5.53
2018-06-08T20:35:43.910Z,4.50
2018-06-08T20:38:17.343Z,5.02
2018-06-08T20:40:46.279Z,4.83
2018-06-08T20:43:15.203Z,4.63
2018-06-08T20:45:52.560Z,5.33
2018-06-08T20:48:29.105Z,5.26
2018-06-08T20:51:05.623Z,4.67
2018-06-08T20:53:41.371Z,4.43
2018-06-08T20:56:12.605Z,4.10
2018-06-08T20:58:51.528Z,4.25
2018-06-08T21:01:20.922Z,4.53
2018-06-08T21:03:51.314Z,4.45
2018-06-08T21:06:21.234Z,4.60
2018-06-08T21:08:50.299Z,4.30
2018-06-08T21:11:19.573Z,4.50
2018-06-08T21:13:49.090Z,4.17
2018-06-08T21:16:19.458Z,4.30
2018-06-08T21:18:48.588Z,4.60
2018-06-08T21:21:18.276Z,4.60
2018-06-08T21:23:48.162Z,4.50
2018-06-08T21:26:22.174Z,4.80
2018-06-08T21:28:53.165Z,4.50
2018-06-08T21:31:22.737Z,4.60
2018-06-08T21:33:52.149Z,4.93
2018-06-08T21:36:22.504Z,5.10
2018-06-08T21:38:59.831Z,5.20
2018-06-08T21:41:30.008Z,4.50
2018-06-08T21:43:58.852Z,4.50
2018-06-08T21:46:34.107Z,4.80
2018-06-08T21:49:08.061Z,4.57
2018-06-08T21:51:38.267Z,4.17
2018-06-08T21:54:14.065Z,4.27
2018-06-08T21:56:53.552Z,4.57
2018-06-08T21:59:32.219Z,4.87
2018-06-08T22:02:10.725Z,4.23
2018-06-08T22:04:47.979Z,4.70
2018-06-08T22:07:26.536Z,3.87
2018-06-08T22:10:04.917Z,4.70
2018-06-08T22:12:42.856Z,5.27
2018-06-08T22:15:22.025Z,4.60
2018-06-08T22:17:55.418Z,4.80
2018-06-08T22:20:31.607Z,5.00
2018-06-08T22:23:11.360Z,4.13
2018-06-08T22:25:52.081Z,4.60
2018-06-08T22:28:20.962Z,4.65
2018-06-08T22:30:49.910Z,4.50
2018-06-08T22:33:18.772Z,5.17
2018-06-08T22:35:47.673Z,4.30
2018-06-08T22:38:16.569Z,4.67
2018-06-08T22:40:45.489Z,4.92
2018-06-08T22:43:14.349Z,4.83
2018-06-08T22:45:43.167Z,4.90
2018-06-08T22:48:12.429Z,4.60
2018-06-08T22:50:41.314Z,5.23
2018-06-08T22:53:10.174Z,4.77
2018-06-08T22:55:39.009Z,4.70
2018-06-08T22:58:07.881Z,5.50
2018-06-08T23:00:36.745Z,4.97
2018-06-08T23:03:05.589Z,4.73
2018-06-08T23:05:34.505Z,5.00
2018-06-08T23:08:03.339Z,5.57
2018-06-08T23:10:32.251Z,5.47
2018-06-08T23:13:01.122Z,5.05
2018-06-08T23:15:29.968Z,5.60
2018-06-08T23:17:58.778Z,5.30
2018-06-08T23:20:27.563Z,5.83
2018-06-08T23:22:56.413Z,5.43
2018-06-08T23:25:25.285Z,5.03
2018-06-08T23:27:54.191Z,5.50
2018-06-08T23:30:23.146Z,5.70
2018-06-08T23:32:52.037Z,5.90
2018-06-08T23:35:20.927Z,6.07
2018-06-08T23:37:49.738Z,6.00
2018-06-08T23:40:18.671Z,5.97
2018-06-08T23:42:47.529Z,5.33
2018-06-08T23:45:16.445Z,6.40
2018-06-08T23:47:45.263Z,6.37
2018-06-08T23:50:14.093Z,6.10
2018-06-08T23:52:42.997Z,6.17
2018-06-08T23:55:11.836Z,6.37
2018-06-08T23:57:40.746Z,6.00
